sensor_id;sensor_type;location;lat;lon;timestamp;P1;durP1;ratioP1;P2;durP2;ratioP2
77136;SDS011;66102;48.542;-2.970;2023-03-08T00:01:21;3.53;;;0.90;;
77136;SDS011;66102;48.542;-2.970;2023-03-08T00:03:51;1.27;;;0.65;;
77136;SDS011;66102;48.542;-2.970;2023-03-08T00:06:17;2.45;;;0.77;;
77136;SDS011;66102;48.542;-2.970;2023-03-08T00:08:43;1.48;;;0.63;;
77136;SDS011;66102;48.542;-2.970;2023-03-08T00:11:10;1.10;;;0.55;;
77136;SDS011;66102;48.542;-2.970;2023-03-08T00:13:37;6.18;;;0.90;;
77136;SDS011;66102;48.542;-2.970;2023-03-08T00:16:04;3.95;;;0.75;;
77136;SDS011;66102;48.542;-2.970;2023-03-08T00:18:31;2.95;;;0.68;;
77136;SDS011;66102;48.542;-2.970;2023-03-08T00:20:58;2.08;;;0.77;;
77136;SDS011;66102;48.542;-2.970;2023-03-08T00:23:24;2.13;;;0.75;;
77136;SDS011;66102;48.542;-2.970;2023-03-08T00:25:53;1.85;;;0.77;;
77136;SDS011;66102;48.542;-2.970;2023-03-08T00:28:19;2.78;;;0.80;;
77136;SDS011;66102;48.542;-2.970;2023-03-08T00:30:53;1.83;;;0.80;;
77136;SDS011;66102;48.542;-2.970;2023-03-08T00:33:19;0.93;;;0.60;;
77136;SDS011;66102;48.542;-2.970;2023-03-08T00:35:52;2.38;;;0.70;;
77136;SDS011;66102;48.542;-2.970;2023-03-08T00:38:19;2.53;;;0.50;;
77136;SDS011;66102;48.542;-2.970;2023-03-08T00:40:45;2.03;;;0.70;;
77136;SDS011;66102;48.542;-2.970;2023-03-08T00:43:11;1.30;;;0.70;;
77136;SDS011;66102;48.542;-2.970;2023-03-08T00:45:37;2.88;;;0.52;;
77136;SDS011;66102;48.542;-2.970;2023-03-08T00:48:03;11.98;;;2.22;;
77136;SDS011;66102;48.542;-2.970;2023-03-08T00:50:29;1.30;;;0.60;;
77136;SDS011;66102;48.542;-2.970;2023-03-08T00:52:55;2.28;;;0.80;;
77136;SDS011;66102;48.542;-2.970;2023-03-08T00:55:21;1.80;;;0.70;;
77136;SDS011;66102;48.542;-2.970;2023-03-08T00:57:47;0.73;;;0.40;;
77136;SDS011;66102;48.542;-2.970;2023-03-08T01:00:13;1.52;;;0.50;;
77136;SDS011;66102;48.542;-2.970;2023-03-08T01:02:39;2.00;;;0.80;;
77136;SDS011;66102;48.542;-2.970;2023-03-08T01:05:06;0.93;;;0.32;;
77136;SDS011;66102;48.542;-2.970;2023-03-08T01:07:32;0.65;;;0.30;;
77136;SDS011;66102;48.542;-2.970;2023-03-08T01:09:58;1.38;;;0.50;;
77136;SDS011;66102;48.542;-2.970;2023-03-08T01:12:24;1.45;;;0.50;;
77136;SDS011;66102;48.542;-2.970;2023-03-08T01:14:51;0.82;;;0.50;;
77136;SDS011;66102;48.542;-2.970;2023-03-08T01:17:17;0.75;;;0.38;;
77136;SDS011;66102;48.542;-2.970;2023-03-08T01:19:43;1.10;;;0.55;;
77136;SDS011;66102;48.542;-2.970;2023-03-08T01:22:10;0.63;;;0.20;;
77136;SDS011;66102;48.542;-2.970;2023-03-08T01:24:36;1.67;;;0.43;;
77136;SDS011;66102;48.542;-2.970;2023-03-08T01:27:02;1.10;;;0.50;;
77136;SDS011;66102;48.542;-2.970;2023-03-08T01:29:28;1.15;;;0.40;;
77136;SDS011;66102;48.542;-2.970;2023-03-08T01:31:54;0.73;;;0.40;;
77136;SDS011;66102;48.542;-2.970;2023-03-08T01:34:20;0.77;;;0.35;;
77136;SDS011;66102;48.542;-2.970;2023-03-08T01:36:46;0.85;;;0.57;;
77136;SDS011;66102;48.542;-2.970;2023-03-08T01:39:12;0.82;;;0.50;;
77136;SDS011;66102;48.542;-2.970;2023-03-08T01:41:38;1.77;;;0.73;;
77136;SDS011;66102;48.542;-2.970;2023-03-08T01:44:05;1.20;;;0.43;;
77136;SDS011;66102;48.542;-2.970;2023-03-08T01:46:34;2.05;;;0.70;;
77136;SDS011;66102;48.542;-2.970;2023-03-08T01:49:05;4.53;;;0.90;;
77136;SDS011;66102;48.542;-2.970;2023-03-08T01:51:51;3.50;;;1.20;;
77136;SDS011;66102;48.542;-2.970;2023-03-08T01:54:24;7.07;;;1.10;;
77136;SDS011;66102;48.542;-2.970;2023-03-08T01:56:51;4.05;;;1.00;;
77136;SDS011;66102;48.542;-2.970;2023-03-08T01:59:19;11.13;;;1.42;;
77136;SDS011;66102;48.542;-2.970;2023-03-08T02:01:46;5.47;;;1.45;;
77136;SDS011;66102;48.542;-2.970;2023-03-08T02:04:13;8.52;;;1.45;;
77136;SDS011;66102;48.542;-2.970;2023-03-08T02:06:39;8.70;;;1.60;;
77136;SDS011;66102;48.542;-2.970;2023-03-08T02:09:06;10.65;;;2.33;;
77136;SDS011;66102;48.542;-2.970;2023-03-08T02:11:33;9.60;;;2.08;;
77136;SDS011;66102;48.542;-2.970;2023-03-08T02:14:00;11.38;;;1.92;;
77136;SDS011;66102;48.542;-2.970;2023-03-08T02:16:27;10.13;;;1.88;;
77136;SDS011;66102;48.542;-2.970;2023-03-08T02:18:54;10.65;;;2.10;;
77136;SDS011;66102;48.542;-2.970;2023-03-08T02:21:21;14.40;;;2.17;;
77136;SDS011;66102;48.542;-2.970;2023-03-08T02:23:48;10.30;;;2.53;;
77136;SDS011;66102;48.542;-2.970;2023-03-08T02:26:14;11.85;;;2.55;;
77136;SDS011;66102;48.542;-2.970;2023-03-08T02:28:40;16.90;;;2.65;;
77136;SDS011;66102;48.542;-2.970;2023-03-08T02:31:06;10.65;;;2.15;;
77136;SDS011;66102;48.542;-2.970;2023-03-08T02:33:32;11.85;;;3.05;;
77136;SDS011;66102;48.542;-2.970;2023-03-08T02:36:00;13.18;;;2.53;;
77136;SDS011;66102;48.542;-2.970;2023-03-08T02:38:26;18.13;;;3.03;;
77136;SDS011;66102;48.542;-2.970;2023-03-08T02:40:52;16.38;;;3.25;;
77136;SDS011;66102;48.542;-2.970;2023-03-08T02:43:18;20.08;;;2.47;;
77136;SDS011;66102;48.542;-2.970;2023-03-08T02:45:44;13.10;;;2.28;;
77136;SDS011;66102;48.542;-2.970;2023-03-08T02:48:10;16.15;;;3.13;;
77136;SDS011;66102;48.542;-2.970;2023-03-08T02:50:37;18.55;;;3.35;;
77136;SDS011;66102;48.542;-2.970;2023-03-08T02:53:03;19.70;;;2.92;;
77136;SDS011;66102;48.542;-2.970;2023-03-08T02:55:29;15.35;;;2.90;;
77136;SDS011;66102;48.542;-2.970;2023-03-08T02:57:56;21.70;;;4.00;;
77136;SDS011;66102;48.542;-2.970;2023-03-08T03:00:22;21.30;;;3.17;;
77136;SDS011;66102;48.542;-2.970;2023-03-08T03:02:48;17.40;;;3.25;;
77136;SDS011;66102;48.542;-2.970;2023-03-08T03:05:14;19.40;;;2.65;;
77136;SDS011;66102;48.542;-2.970;2023-03-08T03:07:40;19.33;;;3.35;;
77136;SDS011;66102;48.542;-2.970;2023-03-08T03:10:07;21.05;;;3.40;;
77136;SDS011;66102;48.542;-2.970;2023-03-08T03:12:34;17.98;;;3.28;;
77136;SDS011;66102;48.542;-2.970;2023-03-08T03:15:00;17.20;;;3.28;;
77136;SDS011;66102;48.542;-2.970;2023-03-08T03:17:27;16.02;;;3.40;;
77136;SDS011;66102;48.542;-2.970;2023-03-08T03:19:53;20.40;;;3.67;;
77136;SDS011;66102;48.542;-2.970;2023-03-08T03:22:19;19.02;;;3.35;;
77136;SDS011;66102;48.542;-2.970;2023-03-08T03:24:45;17.05;;;3.22;;
77136;SDS011;66102;48.542;-2.970;2023-03-08T03:27:11;20.05;;;4.20;;
77136;SDS011;66102;48.542;-2.970;2023-03-08T03:29:37;23.23;;;5.38;;
77136;SDS011;66102;48.542;-2.970;2023-03-08T03:32:03;24.40;;;4.25;;
77136;SDS011;66102;48.542;-2.970;2023-03-08T03:34:29;22.23;;;3.33;;
77136;SDS011;66102;48.542;-2.970;2023-03-08T03:36:55;22.70;;;3.63;;
77136;SDS011;66102;48.542;-2.970;2023-03-08T03:39:21;22.05;;;3.60;;
77136;SDS011;66102;48.542;-2.970;2023-03-08T03:41:47;19.17;;;3.67;;
77136;SDS011;66102;48.542;-2.970;2023-03-08T03:44:13;21.88;;;3.45;;
77136;SDS011;66102;48.542;-2.970;2023-03-08T03:46:39;25.60;;;3.95;;
77136;SDS011;66102;48.542;-2.970;2023-03-08T03:49:05;22.52;;;3.88;;
77136;SDS011;66102;48.542;-2.970;2023-03-08T03:51:31;23.13;;;3.03;;
77136;SDS011;66102;48.542;-2.970;2023-03-08T03:53:57;17.63;;;3.67;;
77136;SDS011;66102;48.542;-2.970;2023-03-08T03:56:24;19.35;;;4.78;;
77136;SDS011;66102;48.542;-2.970;2023-03-08T03:58:51;17.48;;;3.08;;
77136;SDS011;66102;48.542;-2.970;2023-03-08T04:01:18;20.77;;;3.33;;
77136;SDS011;66102;48.542;-2.970;2023-03-08T04:03:45;14.00;;;2.60;;
77136;SDS011;66102;48.542;-2.970;2023-03-08T04:06:21;14.50;;;2.15;;
77136;SDS011;66102;48.542;-2.970;2023-03-08T04:08:48;20.02;;;3.75;;
77136;SDS011;66102;48.542;-2.970;2023-03-08T04:11:14;12.48;;;2.50;;
77136;SDS011;66102;48.542;-2.970;2023-03-08T04:13:41;11.43;;;2.15;;
77136;SDS011;66102;48.542;-2.970;2023-03-08T04:16:21;10.90;;;2.30;;
77136;SDS011;66102;48.542;-2.970;2023-03-08T04:18:47;14.40;;;2.30;;
77136;SDS011;66102;48.542;-2.970;2023-03-08T04:21:17;13.85;;;2.83;;
77136;SDS011;66102;48.542;-2.970;2023-03-08T04:23:43;13.35;;;2.75;;
77136;SDS011;66102;48.542;-2.970;2023-03-08T04:26:09;10.15;;;2.08;;
77136;SDS011;66102;48.542;-2.970;2023-03-08T04:28:35;8.80;;;2.10;;
77136;SDS011;66102;48.542;-2.970;2023-03-08T04:31:17;12.32;;;2.35;;
77136;SDS011;66102;48.542;-2.970;2023-03-08T04:33:44;11.00;;;2.22;;
77136;SDS011;66102;48.542;-2.970;2023-03-08T04:36:10;10.85;;;2.13;;
77136;SDS011;66102;48.542;-2.970;2023-03-08T04:38:37;9.80;;;1.88;;
77136;SDS011;66102;48.542;-2.970;2023-03-08T04:41:03;7.53;;;1.73;;
77136;SDS011;66102;48.542;-2.970;2023-03-08T04:43:34;5.40;;;1.40;;
77136;SDS011;66102;48.542;-2.970;2023-03-08T04:46:00;5.60;;;1.50;;
77136;SDS011;66102;48.542;-2.970;2023-03-08T04:48:26;7.53;;;1.48;;
77136;SDS011;66102;48.542;-2.970;2023-03-08T04:50:53;5.80;;;1.27;;
77136;SDS011;66102;48.542;-2.970;2023-03-08T04:53:19;7.32;;;1.27;;
77136;SDS011;66102;48.542;-2.970;2023-03-08T04:55:46;5.53;;;1.10;;
77136;SDS011;66102;48.542;-2.970;2023-03-08T04:58:12;4.68;;;1.30;;
77136;SDS011;66102;48.542;-2.970;2023-03-08T05:00:38;6.53;;;1.60;;
77136;SDS011;66102;48.542;-2.970;2023-03-08T05:03:04;6.75;;;1.40;;
77136;SDS011;66102;48.542;-2.970;2023-03-08T05:05:30;5.38;;;1.33;;
77136;SDS011;66102;48.542;-2.970;2023-03-08T05:07:56;9.13;;;1.38;;
77136;SDS011;66102;48.542;-2.970;2023-03-08T05:10:30;8.95;;;1.42;;
77136;SDS011;66102;48.542;-2.970;2023-03-08T05:12:56;10.10;;;1.60;;
77136;SDS011;66102;48.542;-2.970;2023-03-08T05:15:22;11.52;;;2.80;;
77136;SDS011;66102;48.542;-2.970;2023-03-08T05:17:49;13.20;;;2.10;;
77136;SDS011;66102;48.542;-2.970;2023-03-08T05:20:15;13.65;;;2.05;;
77136;SDS011;66102;48.542;-2.970;2023-03-08T05:22:41;13.80;;;1.77;;
77136;SDS011;66102;48.542;-2.970;2023-03-08T05:25:08;11.70;;;2.50;;
77136;SDS011;66102;48.542;-2.970;2023-03-08T05:27:37;13.57;;;2.65;;
77136;SDS011;66102;48.542;-2.970;2023-03-08T05:30:04;11.20;;;3.20;;
77136;SDS011;66102;48.542;-2.970;2023-03-08T05:32:30;10.85;;;2.03;;
77136;SDS011;66102;48.542;-2.970;2023-03-08T05:34:56;15.57;;;2.13;;
77136;SDS011;66102;48.542;-2.970;2023-03-08T05:37:22;14.27;;;2.25;;
77136;SDS011;66102;48.542;-2.970;2023-03-08T05:39:50;18.20;;;3.20;;
77136;SDS011;66102;48.542;-2.970;2023-03-08T05:42:16;19.00;;;3.17;;
77136;SDS011;66102;48.542;-2.970;2023-03-08T05:44:42;13.20;;;2.55;;
77136;SDS011;66102;48.542;-2.970;2023-03-08T05:47:08;15.32;;;2.55;;
77136;SDS011;66102;48.542;-2.970;2023-03-08T05:49:34;13.88;;;3.28;;
77136;SDS011;66102;48.542;-2.970;2023-03-08T05:52:00;18.50;;;2.65;;
77136;SDS011;66102;48.542;-2.970;2023-03-08T05:54:26;20.50;;;3.40;;
77136;SDS011;66102;48.542;-2.970;2023-03-08T05:56:52;15.98;;;3.00;;
77136;SDS011;66102;48.542;-2.970;2023-03-08T05:59:18;21.85;;;3.33;;
77136;SDS011;66102;48.542;-2.970;2023-03-08T06:01:44;22.55;;;3.45;;
77136;SDS011;66102;48.542;-2.970;2023-03-08T06:04:10;18.73;;;3.80;;
77136;SDS011;66102;48.542;-2.970;2023-03-08T06:06:36;17.63;;;4.30;;
77136;SDS011;66102;48.542;-2.970;2023-03-08T06:09:02;17.33;;;3.30;;
77136;SDS011;66102;48.542;-2.970;2023-03-08T06:11:28;20.20;;;3.47;;
77136;SDS011;66102;48.542;-2.970;2023-03-08T06:13:54;15.70;;;3.65;;
77136;SDS011;66102;48.542;-2.970;2023-03-08T06:16:20;22.08;;;3.38;;
77136;SDS011;66102;48.542;-2.970;2023-03-08T06:18:47;22.40;;;4.20;;
77136;SDS011;66102;48.542;-2.970;2023-03-08T06:21:13;24.13;;;3.88;;
77136;SDS011;66102;48.542;-2.970;2023-03-08T06:23:41;18.60;;;3.65;;
77136;SDS011;66102;48.542;-2.970;2023-03-08T06:26:08;17.90;;;3.17;;
77136;SDS011;66102;48.542;-2.970;2023-03-08T06:28:34;23.00;;;3.30;;
77136;SDS011;66102;48.542;-2.970;2023-03-08T06:31:00;20.00;;;3.30;;
77136;SDS011;66102;48.542;-2.970;2023-03-08T06:33:27;21.38;;;3.42;;
77136;SDS011;66102;48.542;-2.970;2023-03-08T06:36:15;19.02;;;3.30;;
77136;SDS011;66102;48.542;-2.970;2023-03-08T06:38:40;23.42;;;4.30;;
77136;SDS011;66102;48.542;-2.970;2023-03-08T06:41:07;20.70;;;3.83;;
77136;SDS011;66102;48.542;-2.970;2023-03-08T06:43:33;17.00;;;3.67;;
77136;SDS011;66102;48.542;-2.970;2023-03-08T06:46:03;19.98;;;4.32;;
77136;SDS011;66102;48.542;-2.970;2023-03-08T06:48:29;21.13;;;3.78;;
77136;SDS011;66102;48.542;-2.970;2023-03-08T06:50:55;20.52;;;4.07;;
77136;SDS011;66102;48.542;-2.970;2023-03-08T06:53:21;20.48;;;3.72;;
77136;SDS011;66102;48.542;-2.970;2023-03-08T06:55:47;22.10;;;4.15;;
77136;SDS011;66102;48.542;-2.970;2023-03-08T06:58:13;17.95;;;3.88;;
77136;SDS011;66102;48.542;-2.970;2023-03-08T07:00:39;22.92;;;4.22;;
77136;SDS011;66102;48.542;-2.970;2023-03-08T07:03:05;17.38;;;3.17;;
77136;SDS011;66102;48.542;-2.970;2023-03-08T07:05:31;17.40;;;3.53;;
77136;SDS011;66102;48.542;-2.970;2023-03-08T07:07:57;24.10;;;3.97;;
77136;SDS011;66102;48.542;-2.970;2023-03-08T07:10:23;18.65;;;3.65;;
77136;SDS011;66102;48.542;-2.970;2023-03-08T07:12:49;21.70;;;4.57;;
77136;SDS011;66102;48.542;-2.970;2023-03-08T07:15:17;22.45;;;4.10;;
77136;SDS011;66102;48.542;-2.970;2023-03-08T07:17:47;21.75;;;4.32;;
77136;SDS011;66102;48.542;-2.970;2023-03-08T07:20:14;22.25;;;3.88;;
77136;SDS011;66102;48.542;-2.970;2023-03-08T07:22:41;20.13;;;3.65;;
77136;SDS011;66102;48.542;-2.970;2023-03-08T07:25:09;23.52;;;4.18;;
77136;SDS011;66102;48.542;-2.970;2023-03-08T07:27:36;20.45;;;3.83;;
77136;SDS011;66102;48.542;-2.970;2023-03-08T07:30:02;22.15;;;3.63;;
77136;SDS011;66102;48.542;-2.970;2023-03-08T07:32:29;19.40;;;4.05;;
77136;SDS011;66102;48.542;-2.970;2023-03-08T07:34:55;16.35;;;3.55;;
77136;SDS011;66102;48.542;-2.970;2023-03-08T07:37:22;27.92;;;5.53;;
77136;SDS011;66102;48.542;-2.970;2023-03-08T07:39:48;19.25;;;3.95;;
77136;SDS011;66102;48.542;-2.970;2023-03-08T07:42:15;21.15;;;4.00;;
77136;SDS011;66102;48.542;-2.970;2023-03-08T07:44:41;19.98;;;3.72;;
77136;SDS011;66102;48.542;-2.970;2023-03-08T07:47:07;23.73;;;4.47;;
77136;SDS011;66102;48.542;-2.970;2023-03-08T07:49:34;24.52;;;4.65;;
77136;SDS011;66102;48.542;-2.970;2023-03-08T07:52:00;25.42;;;4.45;;
77136;SDS011;66102;48.542;-2.970;2023-03-08T07:54:26;24.60;;;4.95;;
77136;SDS011;66102;48.542;-2.970;2023-03-08T07:56:52;23.15;;;4.25;;
77136;SDS011;66102;48.542;-2.970;2023-03-08T07:59:19;25.88;;;4.22;;
77136;SDS011;66102;48.542;-2.970;2023-03-08T08:01:45;20.33;;;4.35;;
77136;SDS011;66102;48.542;-2.970;2023-03-08T08:04:11;22.73;;;3.78;;
77136;SDS011;66102;48.542;-2.970;2023-03-08T08:06:38;28.38;;;5.00;;
77136;SDS011;66102;48.542;-2.970;2023-03-08T08:09:04;19.70;;;3.78;;
77136;SDS011;66102;48.542;-2.970;2023-03-08T08:11:30;27.13;;;5.25;;
77136;SDS011;66102;48.542;-2.970;2023-03-08T08:13:57;28.42;;;5.10;;
77136;SDS011;66102;48.542;-2.970;2023-03-08T08:16:23;24.42;;;3.83;;
77136;SDS011;66102;48.542;-2.970;2023-03-08T08:18:50;28.77;;;4.93;;
77136;SDS011;66102;48.542;-2.970;2023-03-08T08:21:16;29.52;;;4.95;;
77136;SDS011;66102;48.542;-2.970;2023-03-08T08:23:42;24.73;;;3.78;;
77136;SDS011;66102;48.542;-2.970;2023-03-08T08:26:10;26.48;;;4.63;;
77136;SDS011;66102;48.542;-2.970;2023-03-08T08:28:37;27.48;;;4.22;;
77136;SDS011;66102;48.542;-2.970;2023-03-08T08:31:08;29.60;;;4.53;;
77136;SDS011;66102;48.542;-2.970;2023-03-08T08:33:34;18.95;;;4.43;;
77136;SDS011;66102;48.542;-2.970;2023-03-08T08:36:05;29.30;;;5.80;;
77136;SDS011;66102;48.542;-2.970;2023-03-08T08:38:31;23.60;;;4.53;;
77136;SDS011;66102;48.542;-2.970;2023-03-08T08:41:00;29.65;;;5.25;;
77136;SDS011;66102;48.542;-2.970;2023-03-08T08:43:27;28.38;;;4.30;;
77136;SDS011;66102;48.542;-2.970;2023-03-08T08:45:54;22.40;;;4.30;;
77136;SDS011;66102;48.542;-2.970;2023-03-08T08:48:21;23.17;;;4.85;;
77136;SDS011;66102;48.542;-2.970;2023-03-08T08:50:47;21.25;;;4.70;;
77136;SDS011;66102;48.542;-2.970;2023-03-08T08:53:14;23.00;;;4.18;;
77136;SDS011;66102;48.542;-2.970;2023-03-08T08:55:40;24.10;;;5.80;;
77136;SDS011;66102;48.542;-2.970;2023-03-08T08:58:07;27.77;;;4.47;;
77136;SDS011;66102;48.542;-2.970;2023-03-08T09:00:33;27.65;;;4.53;;
77136;SDS011;66102;48.542;-2.970;2023-03-08T09:03:00;25.08;;;4.15;;
77136;SDS011;66102;48.542;-2.970;2023-03-08T09:05:26;25.75;;;5.03;;
77136;SDS011;66102;48.542;-2.970;2023-03-08T09:07:56;22.08;;;3.95;;
77136;SDS011;66102;48.542;-2.970;2023-03-08T09:10:23;19.40;;;3.83;;
77136;SDS011;66102;48.542;-2.970;2023-03-08T09:12:49;20.58;;;3.22;;
77136;SDS011;66102;48.542;-2.970;2023-03-08T09:15:15;22.50;;;3.90;;
77136;SDS011;66102;48.542;-2.970;2023-03-08T09:17:42;20.20;;;3.88;;
77136;SDS011;66102;48.542;-2.970;2023-03-08T09:20:09;26.38;;;4.13;;
77136;SDS011;66102;48.542;-2.970;2023-03-08T09:22:38;22.80;;;4.25;;
77136;SDS011;66102;48.542;-2.970;2023-03-08T09:25:05;18.55;;;4.18;;
77136;SDS011;66102;48.542;-2.970;2023-03-08T09:27:32;20.50;;;4.45;;
77136;SDS011;66102;48.542;-2.970;2023-03-08T09:29:58;24.90;;;5.40;;
77136;SDS011;66102;48.542;-2.970;2023-03-08T09:32:24;18.75;;;4.00;;
77136;SDS011;66102;48.542;-2.970;2023-03-08T09:34:51;21.48;;;4.13;;
77136;SDS011;66102;48.542;-2.970;2023-03-08T09:37:17;22.67;;;4.07;;
77136;SDS011;66102;48.542;-2.970;2023-03-08T09:39:43;24.10;;;4.60;;
77136;SDS011;66102;48.542;-2.970;2023-03-08T09:42:20;23.60;;;3.55;;
77136;SDS011;66102;48.542;-2.970;2023-03-08T09:50:03;18.98;;;4.35;;
77136;SDS011;66102;48.542;-2.970;2023-03-08T09:52:38;22.35;;;3.20;;
77136;SDS011;66102;48.542;-2.970;2023-03-08T09:55:11;20.63;;;3.60;;
77136;SDS011;66102;48.542;-2.970;2023-03-08T09:57:40;19.83;;;3.72;;
77136;SDS011;66102;48.542;-2.970;2023-03-08T10:00:12;27.10;;;4.30;;
77136;SDS011;66102;48.542;-2.970;2023-03-08T10:15:39;18.38;;;3.65;;
77136;SDS011;66102;48.542;-2.970;2023-03-08T10:20:38;21.75;;;4.30;;
77136;SDS011;66102;48.542;-2.970;2023-03-08T10:23:11;20.38;;;3.20;;
77136;SDS011;66102;48.542;-2.970;2023-03-08T10:25:38;18.73;;;4.07;;
77136;SDS011;66102;48.542;-2.970;2023-03-08T10:28:08;16.70;;;3.65;;
77136;SDS011;66102;48.542;-2.970;2023-03-08T10:30:37;21.85;;;3.60;;
77136;SDS011;66102;48.542;-2.970;2023-03-08T10:33:09;14.48;;;2.95;;
77136;SDS011;66102;48.542;-2.970;2023-03-08T10:35:37;20.17;;;3.78;;
77136;SDS011;66102;48.542;-2.970;2023-03-08T10:38:03;16.58;;;3.03;;
77136;SDS011;66102;48.542;-2.970;2023-03-08T10:40:30;21.50;;;3.17;;
77136;SDS011;66102;48.542;-2.970;2023-03-08T10:43:01;21.80;;;3.13;;
77136;SDS011;66102;48.542;-2.970;2023-03-08T10:45:29;13.57;;;2.90;;
77136;SDS011;66102;48.542;-2.970;2023-03-08T10:47:59;11.80;;;3.05;;
77136;SDS011;66102;48.542;-2.970;2023-03-08T10:50:29;20.70;;;3.28;;
77136;SDS011;66102;48.542;-2.970;2023-03-08T10:53:06;12.75;;;2.72;;
77136;SDS011;66102;48.542;-2.970;2023-03-08T10:57:59;12.57;;;2.63;;
77136;SDS011;66102;48.542;-2.970;2023-03-08T11:00:36;14.82;;;3.13;;
77136;SDS011;66102;48.542;-2.970;2023-03-08T11:03:09;13.02;;;3.03;;
77136;SDS011;66102;48.542;-2.970;2023-03-08T11:05:36;18.02;;;2.88;;
77136;SDS011;66102;48.542;-2.970;2023-03-08T11:08:02;13.38;;;3.00;;
77136;SDS011;66102;48.542;-2.970;2023-03-08T11:10:28;16.02;;;3.90;;
77136;SDS011;66102;48.542;-2.970;2023-03-08T11:13:07;15.90;;;2.90;;
77136;SDS011;66102;48.542;-2.970;2023-03-08T11:15:39;18.48;;;2.80;;
77136;SDS011;66102;48.542;-2.970;2023-03-08T11:20:54;17.80;;;3.30;;
77136;SDS011;66102;48.542;-2.970;2023-03-08T11:23:38;16.00;;;3.35;;
77136;SDS011;66102;48.542;-2.970;2023-03-08T11:36:53;14.13;;;2.75;;
77136;SDS011;66102;48.542;-2.970;2023-03-08T11:39:25;15.98;;;2.88;;
77136;SDS011;66102;48.542;-2.970;2023-03-08T11:47:30;15.90;;;2.78;;
77136;SDS011;66102;48.542;-2.970;2023-03-08T11:50:03;11.00;;;2.10;;
77136;SDS011;66102;48.542;-2.970;2023-03-08T11:55:37;11.27;;;2.35;;
77136;SDS011;66102;48.542;-2.970;2023-03-08T11:58:13;11.52;;;2.05;;
77136;SDS011;66102;48.542;-2.970;2023-03-08T12:00:41;14.65;;;2.30;;
77136;SDS011;66102;48.542;-2.970;2023-03-08T12:03:17;9.85;;;2.10;;
77136;SDS011;66102;48.542;-2.970;2023-03-08T12:05:48;10.82;;;2.17;;
77136;SDS011;66102;48.542;-2.970;2023-03-08T12:10:44;8.40;;;2.33;;
77136;SDS011;66102;48.542;-2.970;2023-03-08T12:13:20;9.43;;;1.80;;
77136;SDS011;66102;48.542;-2.970;2023-03-08T12:20:56;7.85;;;1.73;;
77136;SDS011;66102;48.542;-2.970;2023-03-08T12:26:12;6.97;;;1.42;;
77136;SDS011;66102;48.542;-2.970;2023-03-08T12:28:52;6.03;;;1.55;;
77136;SDS011;66102;48.542;-2.970;2023-03-08T12:33:49;5.78;;;1.20;;
77136;SDS011;66102;48.542;-2.970;2023-03-08T12:36:15;4.63;;;1.23;;
77136;SDS011;66102;48.542;-2.970;2023-03-08T12:38:43;3.83;;;1.20;;
77136;SDS011;66102;48.542;-2.970;2023-03-08T12:41:21;3.65;;;0.95;;
77136;SDS011;66102;48.542;-2.970;2023-03-08T12:43:57;4.70;;;1.20;;
77136;SDS011;66102;48.542;-2.970;2023-03-08T12:46:23;4.75;;;1.05;;
77136;SDS011;66102;48.542;-2.970;2023-03-08T12:48:49;4.07;;;1.00;;
77136;SDS011;66102;48.542;-2.970;2023-03-08T12:51:19;4.65;;;1.42;;
77136;SDS011;66102;48.542;-2.970;2023-03-08T12:58:53;6.93;;;1.50;;
77136;SDS011;66102;48.542;-2.970;2023-03-08T13:03:49;8.18;;;1.98;;
77136;SDS011;66102;48.542;-2.970;2023-03-08T13:08:57;6.90;;;1.98;;
77136;SDS011;66102;48.542;-2.970;2023-03-08T13:11:26;18.17;;;3.28;;
77136;SDS011;66102;48.542;-2.970;2023-03-08T13:14:02;13.10;;;2.92;;
77136;SDS011;66102;48.542;-2.970;2023-03-08T13:16:36;14.75;;;3.92;;
77136;SDS011;66102;48.542;-2.970;2023-03-08T13:21:39;18.90;;;3.97;;
77136;SDS011;66102;48.542;-2.970;2023-03-08T13:29:40;21.88;;;4.18;;
77136;SDS011;66102;48.542;-2.970;2023-03-08T13:32:10;17.27;;;4.07;;
77136;SDS011;66102;48.542;-2.970;2023-03-08T13:34:37;18.33;;;3.55;;
77136;SDS011;66102;48.542;-2.970;2023-03-08T13:37:05;25.08;;;4.13;;
77136;SDS011;66102;48.542;-2.970;2023-03-08T13:39:31;20.40;;;3.80;;
77136;SDS011;66102;48.542;-2.970;2023-03-08T13:42:10;16.02;;;3.58;;
77136;SDS011;66102;48.542;-2.970;2023-03-08T13:44:37;20.15;;;4.13;;
77136;SDS011;66102;48.542;-2.970;2023-03-08T13:47:14;19.02;;;3.38;;
77136;SDS011;66102;48.542;-2.970;2023-03-08T13:49:43;23.30;;;4.45;;
77136;SDS011;66102;48.542;-2.970;2023-03-08T13:52:29;20.80;;;3.95;;
77136;SDS011;66102;48.542;-2.970;2023-03-08T13:54:57;18.48;;;4.30;;
77136;SDS011;66102;48.542;-2.970;2023-03-08T13:57:25;20.23;;;4.15;;
77136;SDS011;66102;48.542;-2.970;2023-03-08T13:59:55;27.02;;;4.10;;
77136;SDS011;66102;48.542;-2.970;2023-03-08T14:02:22;26.30;;;4.60;;
77136;SDS011;66102;48.542;-2.970;2023-03-08T14:04:48;19.95;;;3.25;;
77136;SDS011;66102;48.542;-2.970;2023-03-08T14:07:26;19.50;;;3.58;;
77136;SDS011;66102;48.542;-2.970;2023-03-08T14:09:52;16.27;;;3.13;;
77136;SDS011;66102;48.542;-2.970;2023-03-08T14:12:19;21.67;;;3.90;;
77136;SDS011;66102;48.542;-2.970;2023-03-08T14:14:53;22.02;;;4.05;;
77136;SDS011;66102;48.542;-2.970;2023-03-08T14:17:21;21.75;;;2.85;;
77136;SDS011;66102;48.542;-2.970;2023-03-08T14:19:55;22.85;;;3.40;;
77136;SDS011;66102;48.542;-2.970;2023-03-08T14:22:22;16.45;;;3.45;;
77136;SDS011;66102;48.542;-2.970;2023-03-08T14:24:56;21.17;;;4.35;;
77136;SDS011;66102;48.542;-2.970;2023-03-08T14:27:37;13.40;;;2.53;;
77136;SDS011;66102;48.542;-2.970;2023-03-08T14:30:14;15.80;;;3.15;;
77136;SDS011;66102;48.542;-2.970;2023-03-08T14:33:04;17.40;;;3.22;;
77136;SDS011;66102;48.542;-2.970;2023-03-08T14:35:37;18.50;;;3.58;;
77136;SDS011;66102;48.542;-2.970;2023-03-08T14:38:19;17.58;;;4.35;;
77136;SDS011;66102;48.542;-2.970;2023-03-08T14:40:46;23.38;;;3.70;;
77136;SDS011;66102;48.542;-2.970;2023-03-08T14:43:22;19.67;;;3.33;;
77136;SDS011;66102;48.542;-2.970;2023-03-08T14:45:53;19.23;;;3.97;;
77136;SDS011;66102;48.542;-2.970;2023-03-08T14:53:26;22.83;;;4.57;;
77136;SDS011;66102;48.542;-2.970;2023-03-08T14:55:56;18.27;;;3.05;;
77136;SDS011;66102;48.542;-2.970;2023-03-08T14:58:24;22.40;;;4.18;;
77136;SDS011;66102;48.542;-2.970;2023-03-08T15:00:53;20.30;;;3.97;;
77136;SDS011;66102;48.542;-2.970;2023-03-08T15:03:19;20.15;;;4.22;;
77136;SDS011;66102;48.542;-2.970;2023-03-08T15:05:45;21.70;;;3.85;;
77136;SDS011;66102;48.542;-2.970;2023-03-08T15:08:11;23.63;;;4.53;;
77136;SDS011;66102;48.542;-2.970;2023-03-08T15:10:38;26.17;;;4.50;;
77136;SDS011;66102;48.542;-2.970;2023-03-08T15:13:05;22.10;;;3.85;;
77136;SDS011;66102;48.542;-2.970;2023-03-08T15:15:32;27.70;;;5.43;;
77136;SDS011;66102;48.542;-2.970;2023-03-08T15:17:58;25.90;;;4.47;;
77136;SDS011;66102;48.542;-2.970;2023-03-08T15:20:24;19.33;;;4.43;;
77136;SDS011;66102;48.542;-2.970;2023-03-08T15:22:51;16.17;;;3.20;;
77136;SDS011;66102;48.542;-2.970;2023-03-08T15:25:22;18.50;;;3.60;;
77136;SDS011;66102;48.542;-2.970;2023-03-08T15:27:49;19.33;;;3.55;;
77136;SDS011;66102;48.542;-2.970;2023-03-08T15:30:19;18.23;;;3.35;;
77136;SDS011;66102;48.542;-2.970;2023-03-08T15:32:46;23.77;;;4.10;;
77136;SDS011;66102;48.542;-2.970;2023-03-08T15:35:12;20.20;;;4.72;;
77136;SDS011;66102;48.542;-2.970;2023-03-08T15:37:38;26.20;;;5.38;;
77136;SDS011;66102;48.542;-2.970;2023-03-08T15:40:05;20.42;;;4.18;;
77136;SDS011;66102;48.542;-2.970;2023-03-08T15:42:32;22.52;;;4.38;;
77136;SDS011;66102;48.542;-2.970;2023-03-08T15:44:58;21.77;;;4.13;;
77136;SDS011;66102;48.542;-2.970;2023-03-08T15:47:24;29.58;;;5.32;;
77136;SDS011;66102;48.542;-2.970;2023-03-08T15:49:50;24.45;;;4.93;;